createdAt,value
2019-02-28T00:01:43.281Z,63.91
2019-02-28T00:04:14.366Z,63.75
2019-02-28T00:06:45.403Z,63.40
2019-02-28T00:09:16.429Z,62.79
2019-02-28T00:11:47.454Z,63.07
2019-02-28T00:14:18.306Z,63.20
2019-02-28T00:16:48.999Z,63.78
2019-02-28T00:19:21.057Z,63.84
2019-02-28T00:21:52.518Z,63.44
2019-02-28T00:24:23.230Z,63.04
2019-02-28T00:26:53.898Z,62.96
2019-02-28T00:29:24.854Z,62.67
2019-02-28T00:31:55.540Z,62.49
2019-02-28T00:34:27.330Z,62.44
2019-02-28T00:36:58.201Z,62.56
2019-02-28T00:39:34.455Z,62.89
2019-02-28T00:42:03.158Z,62.67
2019-02-28T00:44:33.872Z,62.62
2019-02-28T00:47:04.938Z,63.13
2019-02-28T00:49:35.988Z,62.95
2019-02-28T00:52:06.653Z,62.83
2019-02-28T00:54:42.972Z,62.51
2019-02-28T00:57:09.796Z,62.44
2019-02-28T00:59:43.141Z,62.38
2019-02-28T01:02:13.991Z,62.83
2019-02-28T01:04:45.144Z,62.21
2019-02-28T01:07:16.127Z,61.88
2019-02-28T01:09:48.092Z,61.89
2019-02-28T01:12:19.917Z,61.70
2019-02-28T01:14:50.882Z,61.99
2019-02-28T01:17:24.062Z,61.99
2019-02-28T01:19:54.151Z,62.47
2019-02-28T01:22:26.853Z,62.69
2019-02-28T01:24:58.074Z,63.12
2019-02-28T01:27:30.635Z,63.53
2019-02-28T01:30:01.418Z,63.99
2019-02-28T01:32:32.149Z,64.08
2019-02-28T01:35:06.739Z,63.99
2019-02-28T01:37:36.687Z,63.92
2019-02-28T01:40:07.793Z,64.33
2019-02-28T01:42:38.646Z,64.26
2019-02-28T01:45:10.889Z,64.92
2019-02-28T01:47:42.020Z,63.96
2019-02-28T01:50:14.496Z,63.49
2019-02-28T01:52:46.214Z,62.87
2019-02-28T01:55:17.054Z,62.42
2019-02-28T01:57:48.195Z,62.21
2019-02-28T02:00:19.723Z,61.48
2019-02-28T02:02:50.761Z,61.22
2019-02-28T02:05:21.493Z,60.59
2019-02-28T02:07:52.371Z,60.28
2019-02-28T02:10:23.742Z,60.14
2019-02-28T02:12:54.805Z,59.64
2019-02-28T02:15:25.395Z,59.01
2019-02-28T02:17:56.100Z,59.07
2019-02-28T02:20:27.807Z,58.98
2019-02-28T02:22:58.471Z,59.12
2019-02-28T02:25:29.317Z,59.21
2019-02-28T02:28:00.100Z,59.39
2019-02-28T02:30:30.964Z,58.85
2019-02-28T02:33:01.645Z,58.52
2019-02-28T02:35:32.412Z,58.20
2019-02-28T02:38:04.619Z,58.11
2019-02-28T02:40:36.071Z,58.33
2019-02-28T02:43:06.873Z,58.74
2019-02-28T02:45:41.671Z,59.73
2019-02-28T02:48:09.933Z,58.78
2019-02-28T02:50:40.583Z,58.65
2019-02-28T02:53:11.164Z,58.29
2019-02-28T02:55:42.540Z,57.82
2019-02-28T02:58:13.337Z,57.61
2019-02-28T03:00:49.293Z,57.14
2019-02-28T03:03:17.470Z,56.75
2019-02-28T03:05:48.187Z,56.39
2019-02-28T03:08:19.127Z,56.32
2019-02-28T03:10:51.854Z,56.94
2019-02-28T03:13:22.663Z,55.98
2019-02-28T03:15:53.076Z,55.43
2019-02-28T03:18:23.744Z,55.08
2019-02-28T03:20:54.510Z,54.85
2019-02-28T03:23:25.164Z,55.26
2019-02-28T03:25:55.881Z,55.97
2019-02-28T03:28:28.100Z,55.87
2019-02-28T03:31:11.901Z,55.60
2019-02-28T03:33:32.008Z,55.57
2019-02-28T03:36:02.515Z,55.51
2019-02-28T03:38:34.670Z,56.09
2019-02-28T03:41:05.599Z,55.76
2019-02-28T03:43:42.656Z,56.35
2019-02-28T03:46:10.307Z,56.53
2019-02-28T03:48:42.234Z,56.46
2019-02-28T03:51:12.967Z,56.28
2019-02-28T03:53:43.882Z,56.33
2019-02-28T03:56:16.027Z,56.32
2019-02-28T03:58:46.822Z,56.16
2019-02-28T04:01:17.549Z,56.06
2019-02-28T04:03:49.801Z,55.81
2019-02-28T04:06:20.534Z,55.83
2019-02-28T04:08:51.102Z,56.07
2019-02-28T04:11:21.712Z,56.09
2019-02-28T04:13:56.041Z,55.82
2019-02-28T04:16:25.024Z,55.72
2019-02-28T04:18:55.608Z,55.72
2019-02-28T04:21:26.517Z,55.80
2019-02-28T04:23:57.343Z,55.67
2019-02-28T04:26:29.775Z,55.34
2019-02-28T04:29:01.571Z,54.52
2019-02-28T04:31:32.225Z,53.73
2019-02-28T04:34:02.961Z,53.29
2019-02-28T04:36:35.854Z,53.25
2019-02-28T04:39:07.772Z,53.00
2019-02-28T04:41:38.606Z,52.29
2019-02-28T04:44:09.249Z,52.02
2019-02-28T04:46:40.304Z,51.89
2019-02-28T04:49:11.533Z,52.00
2019-02-28T04:51:42.533Z,52.35
2019-02-28T04:54:13.368Z,52.46
2019-02-28T04:56:45.634Z,52.83
2019-02-28T04:59:16.293Z,52.99
2019-02-28T05:01:46.916Z,53.21
2019-02-28T05:04:17.489Z,53.46
2019-02-28T05:06:48.186Z,53.78
2019-02-28T05:09:19.034Z,53.76
2019-02-28T05:11:50.787Z,53.80
2019-02-28T05:14:23.697Z,54.19
2019-02-28T05:16:55.303Z,54.16
2019-02-28T05:19:25.918Z,54.68
2019-02-28T05:21:56.557Z,55.59
2019-02-28T05:24:27.943Z,56.56
2019-02-28T05:27:00.332Z,56.97
2019-02-28T05:29:30.796Z,57.13
2019-02-28T05:32:01.919Z,56.45
2019-02-28T05:34:34.270Z,56.11
2019-02-28T05:37:04.966Z,55.31
2019-02-28T05:39:35.551Z,55.35
2019-02-28T05:42:06.177Z,55.06
2019-02-28T05:44:40.284Z,54.91
2019-02-28T05:47:12.046Z,54.66
2019-02-28T05:49:42.870Z,54.06
2019-02-28T05:52:17.503Z,53.25
2019-02-28T05:54:50.533Z,52.13
2019-02-28T05:57:23.724Z,51.72
2019-02-28T05:59:54.514Z,51.06
2019-02-28T06:02:25.723Z,50.76
2019-02-28T06:04:57.768Z,50.72
2019-02-28T06:07:29.483Z,50.79
2019-02-28T06:10:00.805Z,50.14
2019-02-28T06:12:31.703Z,49.59
2019-02-28T06:15:03.771Z,50.30
2019-02-28T06:17:34.887Z,49.80
2019-02-28T06:20:06.227Z,50.59
2019-02-28T06:22:37.068Z,51.95
2019-02-28T06:25:08.303Z,52.40
2019-02-28T06:27:41.885Z,51.34
2019-02-28T06:30:12.339Z,47.58
2019-02-28T06:32:43.379Z,47.58
2019-02-28T06:35:20.222Z,44.63
2019-02-28T06:37:49.063Z,44.17
2019-02-28T06:40:20.238Z,45.21
2019-02-28T06:42:52.591Z,46.02
2019-02-28T06:45:23.687Z,46.89
2019-02-28T06:47:54.559Z,48.75
2019-02-28T06:50:25.555Z,49.05
2019-02-28T06:52:59.219Z,49.59
2019-02-28T06:55:31.443Z,49.88
2019-02-28T06:58:02.871Z,49.66
2019-02-28T07:00:34.159Z,50.42
2019-02-28T07:03:05.827Z,51.04
2019-02-28T07:05:36.702Z,52.22
2019-02-28T07:08:07.544Z,52.40
2019-02-28T07:10:38.319Z,52.46
2019-02-28T07:13:09.114Z,52.79
2019-02-28T07:15:40.095Z,52.17
2019-02-28T07:18:10.918Z,52.98
2019-02-28T07:20:43.140Z,52.37
2019-02-28T07:23:13.997Z,53.44
2019-02-28T07:25:47.344Z,53.03
2019-02-28T07:28:17.526Z,53.42
2019-02-28T07:30:50.294Z,53.98
2019-02-28T07:33:21.050Z,54.28
2019-02-28T07:35:51.729Z,54.05
2019-02-28T07:38:25.675Z,54.18
2019-02-28T07:40:56.047Z,53.93
2019-02-28T07:43:26.876Z,54.26
2019-02-28T07:45:58.974Z,54.02
2019-02-28T07:48:30.091Z,54.54
2019-02-28T07:51:00.898Z,54.35
2019-02-28T07:53:31.996Z,53.82
2019-02-28T07:56:03.735Z,53.54
2019-02-28T07:58:35.203Z,53.36
2019-02-28T08:01:06.031Z,53.50
2019-02-28T08:03:36.938Z,53.16
2019-02-28T08:06:08.053Z,53.07
2019-02-28T08:11:20.614Z,52.92
2019-02-28T08:13:51.649Z,53.04
2019-02-28T08:16:22.850Z,52.72
2019-02-28T08:18:53.377Z,52.52
2019-02-28T08:21:24.074Z,52.75
2019-02-28T08:23:54.869Z,53.28
2019-02-28T08:26:25.802Z,53.85
2019-02-28T08:28:59.921Z,53.58
2019-02-28T08:31:33.044Z,53.54
2019-02-28T08:34:04.013Z,53.33
2019-02-28T08:36:34.801Z,52.96
2019-02-28T08:39:09.703Z,52.88
2019-02-28T08:41:43.083Z,52.94
2019-02-28T08:44:14.148Z,52.88
2019-02-28T08:46:46.577Z,53.09
2019-02-28T08:49:18.953Z,52.48
2019-02-28T08:51:49.947Z,52.12
2019-02-28T08:54:26.127Z,51.97
2019-02-28T08:56:53.346Z,51.56
2019-02-28T08:59:25.624Z,51.56
2019-02-28T09:01:56.422Z,51.60
2019-02-28T09:04:27.181Z,50.90
2019-02-28T09:06:58.132Z,50.80
2019-02-28T09:09:28.816Z,50.80
2019-02-28T09:11:59.686Z,50.54
2019-02-28T09:14:31.620Z,50.08
2019-02-28T09:17:02.343Z,50.14
2019-02-28T09:19:35.986Z,49.74
2019-02-28T09:22:05.566Z,50.05
2019-02-28T09:24:37.308Z,49.23
2019-02-28T09:27:07.979Z,48.62
2019-02-28T09:29:39.061Z,48.41
2019-02-28T09:32:10.284Z,47.68
2019-02-28T09:34:44.227Z,47.85
2019-02-28T09:37:15.096Z,46.73
2019-02-28T09:39:45.998Z,46.89
2019-02-28T09:42:17.767Z,46.30
2019-02-28T09:44:49.321Z,45.89
2019-02-28T09:47:19.985Z,46.05
2019-02-28T09:49:50.699Z,45.69
2019-02-28T09:52:22.788Z,45.75
2019-02-28T09:54:56.283Z,45.54
2019-02-28T09:57:27.571Z,44.59
2019-02-28T09:59:58.113Z,44.70
2019-02-28T10:02:29.699Z,43.42
2019-02-28T10:05:02.926Z,42.78
2019-02-28T10:07:33.128Z,42.63
2019-02-28T10:10:03.951Z,41.14
2019-02-28T10:12:36.062Z,41.11
2019-02-28T10:15:07.533Z,40.43
2019-02-28T10:17:42.144Z,40.61
2019-02-28T10:20:17.142Z,39.44
2019-02-28T10:22:49.663Z,39.50
2019-02-28T10:25:20.592Z,39.07
2019-02-28T10:27:51.701Z,38.99
2019-02-28T10:30:31.266Z,39.02
2019-02-28T10:32:55.649Z,39.37
2019-02-28T10:35:26.518Z,39.42
2019-02-28T10:37:58.541Z,38.61
2019-02-28T10:40:29.871Z,38.72
2019-02-28T10:43:00.938Z,37.63
2019-02-28T10:45:31.844Z,37.09
2019-02-28T10:48:04.121Z,37.25
2019-02-28T10:50:35.008Z,37.35
2019-02-28T10:53:06.152Z,37.55
2019-02-28T10:55:40.909Z,38.18
2019-02-28T10:58:15.493Z,38.40
2019-02-28T11:00:45.517Z,37.87
2019-02-28T11:03:16.708Z,36.70
2019-02-28T11:05:53.357Z,35.84
2019-02-28T11:08:20.464Z,35.86
2019-02-28T11:10:51.346Z,36.17
2019-02-28T11:13:22.266Z,36.57
2019-02-28T11:15:55.213Z,36.90
2019-02-28T11:18:26.014Z,36.83
2019-02-28T11:20:58.055Z,36.83
2019-02-28T11:23:29.544Z,35.69
2019-02-28T11:26:02.335Z,35.85
2019-02-28T11:28:33.232Z,35.59
2019-02-28T11:31:04.438Z,34.22
2019-02-28T11:33:36.453Z,33.88
2019-02-28T11:36:08.667Z,33.56
2019-02-28T11:38:39.674Z,33.19
2019-02-28T11:41:15.495Z,32.75
2019-02-28T11:43:46.641Z,33.03
2019-02-28T11:46:19.587Z,33.69
2019-02-28T11:48:54.162Z,33.68
2019-02-28T11:51:24.253Z,33.95
2019-02-28T11:53:54.831Z,33.67
2019-02-28T11:56:28.791Z,34.59
2019-02-28T11:58:58.569Z,33.69
2019-02-28T12:01:29.389Z,32.78
2019-02-28T12:04:01.204Z,32.88
2019-02-28T12:06:32.238Z,33.17
2019-02-28T12:09:03.124Z,32.73
2019-02-28T12:11:36.532Z,31.87
2019-02-28T12:14:07.586Z,31.35
2019-02-28T12:16:38.516Z,31.41
2019-02-28T12:19:09.177Z,30.75
2019-02-28T12:21:39.745Z,30.77
2019-02-28T12:24:10.320Z,30.83
2019-02-28T12:26:42.221Z,30.40
2019-02-28T12:29:14.497Z,30.35
2019-02-28T12:31:45.793Z,30.30
2019-02-28T12:34:17.474Z,30.20
2019-02-28T12:36:49.375Z,30.84
2019-02-28T12:39:20.911Z,30.88
2019-02-28T12:41:51.877Z,31.44
2019-02-28T12:44:25.034Z,31.32
2019-02-28T12:46:55.947Z,31.57
2019-02-28T12:49:27.646Z,31.55
2019-02-28T12:51:59.777Z,31.10
2019-02-28T12:54:33.320Z,31.25
2019-02-28T12:57:03.017Z,31.17
2019-02-28T12:59:34.823Z,31.28
2019-02-28T13:02:08.492Z,31.15
2019-02-28T13:04:39.969Z,30.59
2019-02-28T13:07:10.840Z,30.58
2019-02-28T13:09:41.702Z,31.09
2019-02-28T13:12:12.655Z,31.71
2019-02-28T13:14:43.462Z,31.67
2019-02-28T13:17:16.078Z,30.96
2019-02-28T13:19:46.799Z,30.78
2019-02-28T13:22:18.888Z,30.44
2019-02-28T13:24:50.688Z,30.90
2019-02-28T13:27:21.447Z,30.22
2019-02-28T13:29:53.269Z,30.86
2019-02-28T13:32:24.209Z,31.15
2019-02-28T13:34:54.777Z,30.80
2019-02-28T13:37:25.404Z,30.14
2019-02-28T13:39:56.765Z,29.67
2019-02-28T13:42:27.815Z,29.30
2019-02-28T13:44:58.426Z,29.42
2019-02-28T13:47:29.886Z,28.27
2019-02-28T13:50:00.928Z,28.11
2019-02-28T13:52:31.487Z,28.01
2019-02-28T13:55:02.189Z,27.18
2019-02-28T13:57:32.715Z,27.32
2019-02-28T14:00:07.991Z,26.85
2019-02-28T14:02:36.190Z,26.52
2019-02-28T14:05:07.345Z,26.26
2019-02-28T14:07:38.279Z,26.37
2019-02-28T14:10:11.442Z,27.06
2019-02-28T14:12:42.646Z,27.72
2019-02-28T14:15:15.752Z,27.98
2019-02-28T14:17:49.502Z,27.96
2019-02-28T14:20:20.893Z,28.23
2019-02-28T14:22:52.456Z,27.90
2019-02-28T14:25:23.865Z,29.02
2019-02-28T14:27:56.896Z,29.47
2019-02-28T14:30:27.744Z,29.67
2019-02-28T14:32:58.890Z,29.82
2019-02-28T14:35:34.034Z,29.64
2019-02-28T14:38:02.548Z,29.28
2019-02-28T14:40:33.682Z,29.37
2019-02-28T14:43:04.679Z,29.53
2019-02-28T14:45:39.130Z,29.10
2019-02-28T14:48:08.531Z,29.44
2019-02-28T14:50:39.304Z,29.53
2019-02-28T14:53:14.409Z,29.40
2019-02-28T14:55:46.578Z,29.62
2019-02-28T14:58:21.173Z,29.47
2019-02-28T15:00:51.751Z,29.73
2019-02-28T15:03:23.900Z,29.99
2019-02-28T15:05:55.515Z,30.54
2019-02-28T15:08:27.240Z,30.59
2019-02-28T15:10:58.031Z,30.85
2019-02-28T15:13:30.434Z,31.17
2019-02-28T15:16:01.461Z,31.45
2019-02-28T15:18:32.528Z,31.94
2019-02-28T15:21:04.507Z,31.70
2019-02-28T15:23:35.997Z,31.71
2019-02-28T15:26:06.883Z,32.15
2019-02-28T15:28:37.750Z,32.37
2019-02-28T15:31:09.453Z,32.63
2019-02-28T15:33:41.524Z,32.92
2019-02-28T15:36:12.913Z,33.03
2019-02-28T15:38:45.411Z,33.29
2019-02-28T15:41:20.721Z,33.58
2019-02-28T15:43:53.522Z,33.87
2019-02-28T15:46:24.222Z,34.04
2019-02-28T15:48:56.227Z,34.06
2019-02-28T15:51:29.446Z,34.47
2019-02-28T15:54:02.669Z,34.60
2019-02-28T15:56:33.931Z,34.51
2019-02-28T15:59:06.166Z,34.87
2019-02-28T16:01:36.895Z,35.09
2019-02-28T16:04:08.725Z,35.57
2019-02-28T16:06:39.538Z,35.68
2019-02-28T16:09:14.251Z,35.74
2019-02-28T16:12:05.054Z,36.13
2019-02-28T16:14:38.200Z,36.50
2019-02-28T16:17:09.003Z,36.61
2019-02-28T16:19:39.952Z,36.85
2019-02-28T16:22:11.502Z,36.98
2019-02-28T16:24:42.656Z,37.50
2019-02-28T16:27:13.664Z,37.87
2019-02-28T16:29:44.501Z,38.27
2019-02-28T16:32:15.511Z,38.13
2019-02-28T16:34:46.370Z,38.21
2019-02-28T16:37:17.310Z,38.46
2019-02-28T16:39:49.125Z,38.47
2019-02-28T16:42:20.981Z,38.79
2019-02-28T16:44:53.265Z,38.72
2019-02-28T16:47:25.138Z,39.05
2019-02-28T16:49:56.015Z,39.10
2019-02-28T16:52:26.996Z,39.52
2019-02-28T16:54:58.011Z,39.97
2019-02-28T16:57:28.927Z,39.91
2019-02-28T17:00:00.287Z,40.31
2019-02-28T17:02:31.130Z,40.49
2019-02-28T17:05:02.082Z,40.63
2019-02-28T17:07:33.376Z,40.77
2019-02-28T17:10:05.998Z,40.89
2019-02-28T17:12:54.212Z,40.93
2019-02-28T17:15:31.857Z,41.36
2019-02-28T17:18:06.219Z,41.76
2019-02-28T17:20:37.636Z,41.67
2019-02-28T17:23:08.838Z,41.89
2019-02-28T17:25:39.479Z,41.93
2019-02-28T17:28:35.288Z,41.96
2019-02-28T17:31:23.673Z,41.96
2019-02-28T17:33:54.939Z,41.95
2019-02-28T17:36:27.342Z,42.00
2019-02-28T17:38:57.689Z,42.03
2019-02-28T17:41:28.590Z,41.88
2019-02-28T17:44:44.930Z,42.00
2019-02-28T17:47:29.842Z,42.05
2019-02-28T17:50:31.877Z,41.92
2019-02-28T17:53:27.039Z,42.08
2019-02-28T17:56:40.828Z,42.22
2019-02-28T17:59:41.991Z,42.38
2019-02-28T18:02:51.340Z,42.45
2019-02-28T18:06:26.794Z,42.42
2019-02-28T18:09:37.642Z,42.20
2019-02-28T18:12:47.300Z,41.72
2019-02-28T18:16:08.096Z,41.72
2019-02-28T18:19:18.157Z,42.21
2019-02-28T18:22:34.787Z,42.58
2019-02-28T18:25:40.580Z,42.70
2019-02-28T18:28:54.906Z,42.63
2019-02-28T18:31:25.264Z,42.63
2019-02-28T18:34:01.888Z,42.40
2019-02-28T18:36:33.348Z,42.31
2019-02-28T18:39:04.923Z,42.26
2019-02-28T18:41:35.410Z,42.26
2019-02-28T18:44:07.653Z,42.30
2019-02-28T18:46:38.320Z,41.78
2019-02-28T18:49:08.849Z,41.78
2019-02-28T18:51:40.924Z,41.70
2019-02-28T18:54:11.327Z,41.25
2019-02-28T18:56:41.775Z,41.69
2019-02-28T18:59:12.377Z,42.09
2019-02-28T19:01:42.933Z,41.60
2019-02-28T19:04:13.470Z,41.14
2019-02-28T19:06:45.417Z,40.87
2019-02-28T19:09:26.887Z,39.94
2019-02-28T19:11:57.499Z,39.94
2019-02-28T19:14:28.596Z,39.76
2019-02-28T19:16:59.536Z,40.14
2019-02-28T19:19:34.175Z,39.63
2019-02-28T19:22:05.428Z,38.76
2019-02-28T19:24:36.174Z,38.76
2019-02-28T19:27:07.751Z,38.54
2019-02-28T19:29:40.988Z,38.26
2019-02-28T19:32:13.062Z,37.99
2019-02-28T19:34:46.444Z,37.85
2019-02-28T19:37:18.223Z,37.70
2019-02-28T19:39:48.971Z,37.87
2019-02-28T19:42:19.446Z,37.64
2019-02-28T19:44:50.217Z,37.64
2019-02-28T19:47:21.030Z,37.58
2019-02-28T19:49:51.311Z,37.56
2019-02-28T19:52:21.939Z,37.18
2019-02-28T19:54:53.501Z,37.18
2019-02-28T19:57:24.133Z,37.38
2019-02-28T19:59:54.620Z,36.49
2019-02-28T20:02:25.407Z,36.49
2019-02-28T20:04:55.876Z,36.14
2019-02-28T20:07:26.436Z,36.21
2019-02-28T20:09:58.463Z,35.74
2019-02-28T20:12:31.109Z,35.34
2019-02-28T20:15:02.104Z,35.08
2019-02-28T20:17:32.543Z,34.92
2019-02-28T20:20:02.894Z,34.72
2019-02-28T20:22:33.792Z,34.63
2019-02-28T20:25:04.748Z,34.39
2019-02-28T20:27:35.434Z,34.26
2019-02-28T20:30:06.801Z,34.16
2019-02-28T20:32:37.156Z,34.15
2019-02-28T20:35:08.060Z,33.89
2019-02-28T20:37:38.491Z,33.51
2019-02-28T20:40:10.853Z,33.01
2019-02-28T20:42:41.159Z,33.01
2019-02-28T20:45:12.218Z,32.96
2019-02-28T20:47:42.502Z,33.25
2019-02-28T20:50:32.382Z,33.03
2019-02-28T20:53:03.059Z,33.17
2019-02-28T20:55:33.459Z,33.10
2019-02-28T20:58:03.872Z,33.38
2019-02-28T21:00:34.308Z,33.13
2019-02-28T21:03:05.254Z,33.10
2019-02-28T21:05:35.930Z,32.93
2019-02-28T21:08:06.476Z,33.02
2019-02-28T21:10:37.121Z,33.24
2019-02-28T21:13:08.410Z,32.86
2019-02-28T21:15:39.273Z,33.10
2019-02-28T21:18:10.151Z,33.09
2019-02-28T21:20:42.409Z,32.98
2019-02-28T21:23:13.012Z,33.32
2019-02-28T21:25:45.212Z,33.48
2019-02-28T21:28:15.880Z,33.55
2019-02-28T21:30:46.633Z,33.80
2019-02-28T21:33:18.238Z,34.25
2019-02-28T21:35:50.511Z,34.25
2019-02-28T21:38:21.259Z,34.14
2019-02-28T21:40:52.148Z,34.34
2019-02-28T21:43:23.045Z,34.64
2019-02-28T21:45:54.062Z,34.64
2019-02-28T21:48:45.320Z,34.73
2019-02-28T21:51:16.477Z,34.84
2019-02-28T21:53:49.360Z,34.72
2019-02-28T21:56:20.079Z,33.96
2019-02-28T21:58:51.158Z,33.96
2019-02-28T22:01:21.769Z,32.99
2019-02-28T22:03:52.583Z,32.14
2019-02-28T22:06:23.235Z,31.77
2019-02-28T22:08:53.894Z,31.33
2019-02-28T22:11:24.836Z,30.83
2019-02-28T22:13:55.771Z,30.74
2019-02-28T22:16:26.439Z,30.38
2019-02-28T22:18:57.646Z,30.16
2019-02-28T22:21:28.381Z,30.22
2019-02-28T22:24:00.039Z,30.39
2019-02-28T22:26:36.086Z,30.28
2019-02-28T22:29:06.834Z,30.38
2019-02-28T22:32:00.411Z,30.34
2019-02-28T22:34:53.250Z,30.23
2019-02-28T22:37:24.034Z,30.02
2019-02-28T22:39:54.508Z,29.94
2019-02-28T22:42:25.129Z,29.63
2019-02-28T22:44:55.693Z,29.93
2019-02-28T22:47:26.085Z,29.88
2019-02-28T22:49:57.017Z,29.86
2019-02-28T22:52:27.815Z,29.63
2019-02-28T22:55:00.815Z,29.56
2019-02-28T22:57:31.226Z,29.55
2019-02-28T23:00:04.582Z,29.62
2019-02-28T23:02:35.243Z,29.53
2019-02-28T23:05:07.078Z,29.56
2019-02-28T23:07:38.084Z,29.51
2019-02-28T23:10:10.756Z,29.49
2019-02-28T23:12:41.198Z,29.42
2019-02-28T23:15:12.067Z,29.42
2019-02-28T23:17:43.039Z,29.52
2019-02-28T23:20:13.734Z,29.49
2019-02-28T23:22:44.725Z,29.55
2019-02-28T23:25:14.437Z,29.56
2019-02-28T23:27:44.941Z,29.50
2019-02-28T23:30:33.278Z,29.53
2019-02-28T23:33:13.510Z,29.59
2019-02-28T23:35:46.826Z,29.62
2019-02-28T23:38:17.267Z,29.67
2019-02-28T23:40:47.782Z,29.79
2019-02-28T23:43:18.343Z,29.72
2019-02-28T23:45:48.883Z,29.79
2019-02-28T23:48:19.274Z,30.49
2019-02-28T23:50:49.806Z,30.99
2019-02-28T23:53:20.221Z,30.41
2019-02-28T23:55:50.768Z,31.03
2019-02-28T23:58:21.312Z,30.65
